Hlavní strana
METAR-TAF:

METAR-TAF

Letiště :

Umeå, Švédsko

zeměpisná šířka: 63-48N, zeměpisná délka: 020-17E, výška: 7 m

Aktuální stav počasí

Zpráva byla vytvořena před 39 minutami, v 02:50 UTC
Východní vítr 8 kt
Teplota -2°C
Vlhkost vzduchu 93%
Tlak 987 hPa
Viditelnost: 3000 m
slabé sněžení

METAR: ESNU 020250Z 10008KT 3000 -SN VV015 M02/M03 Q0987 R14/17//39

Čas: 05:29 (03:29 UTC)

Předpověď počasí

Zpráva byla vytvořena před 59 minutami, v 02:30 UTC
Předpověď platná od 02 v 03 UTC do 02 v 12 UTC
Východojihovýchodní vítr 13 kt
Viditelnost: 5000 m
Oblačno až skoro zataženo ve výšce 1500 ft
slabé sněžení
Dočasný
od 02 v 03 UTC do 02 v 08 UTC
Viditelnost: 1200 m
ve výšce 600 ft
sníh

TAF: ESNU 020230Z 0203/0212 11013KT 5000 -SN BKN015 TEMPO 0203/0208 1200 SN VV006

Stav a předpovědi počasí z více než 4 000 letišť (zprávy METAR a TAF).

Červené a žluté tečky na mapě představují dostupné meteorologické stanice.

Když kurzor umístíte na tečku, zobrazí se název stanice.

Pak kliknutím zobrazíte stav a předpověď počasí.

Chcete-li změnit mapu, kliknutím na zelené tlačítko se znaménkem +mapu přiblížíte, kliknutím na zelené tlačítko se znaménkem – mapu oddálíte a kliknutím na zelené šipky přejdete na sousední mapy.


METAR-TAF: